Flight Track Log - Related Links

Times and Time Zones

All times are in EDT time to prevent confusion due to time zone crossing. See the GPD27 flight status page for this flight to view local times or setup timezone preferences in your user account.

Time Position Orientation Groundspeed Altitude Reporting Facility
EDT Latitude Longitude Course Direction KTS MPH feet Rate Location/Type
Sun 06:34:14 PM 43.2611 -75.4511 228° Southwest 107 123 2,500  Level Boston Center
Sun 06:34:33 PM 43.2503 -75.4675 228° Southwest 142 163 2,900 1,291 Climbing Boston Center
Sun 06:35:33 PM 43.2117 -75.4231 140° Southeast 214 246 4,200 1,290 Climbing Boston Center
Sun 06:36:06 PM 43.1856 -75.3903 138° Southeast 198 228 4,900 1,097 Climbing Boston Center
Sun 06:37:06 PM 43.1453 -75.3314 133° Southeast 208 239 5,900 1,000 Climbing Boston Center
Sun 06:38:06 PM 43.0967 -75.2781 146° Southeast 214 246 6,900 1,000 Climbing Boston Center
Sun 06:39:06 PM 43.0436 -75.2328 148° Southeast 225 259 7,900 1,000 Climbing Boston Center
Sun 06:40:06 PM 42.9903 -75.1878 148° Southeast 230 265 8,900 1,000 Climbing Boston Center
Sun 06:41:06 PM 42.9353 -75.1400 148° Southeast 230 265 9,900 950 Climbing Boston Center
Sun 06:42:06 PM 42.8800 -75.0950 149° Southeast 230 265 10,800 950 Climbing Boston Center
Sun 06:43:06 PM 42.8228 -75.0472 149° Southeast 235 270 11,800 1,000 Climbing Boston Center
Sun 06:44:06 PM 42.7636 -74.9967 148° Southeast 240 276 12,800 1,000 Climbing Boston Center
Sun 06:45:06 PM 42.7061 -74.9492 149° Southeast 245 282 13,800 1,000 Climbing Boston Center
Sun 06:46:06 PM 42.6467 -74.9017 150° Southeast 245 282 14,800 600 Climbing Boston Center
Sun 06:47:06 PM 42.5875 -74.8483 146° Southeast 252 290 15,000 100 Climbing Boston Center
Sun 06:48:06 PM 42.5197 -74.7950 150° Southeast 258 297 15,000  Level Boston Center
Sun 06:49:07 PM 42.4542 -74.7364 147° Southeast 277 319 15,000  Level Boston Center
Sun 06:50:06 PM 42.3867 -74.6833 150° Southeast 282 325 15,000  Level Boston Center
Sun 06:51:06 PM 42.3211 -74.6247 147° Southeast 282 325 15,000  Level Boston Center
Sun 06:52:06 PM 42.2531 -74.5747 151° Southeast 282 325 15,000  Level Boston Center
Sun 06:53:06 PM 42.1919 -74.5108 142° Southeast 287 330 15,000  Level Boston Center
Sun 06:54:06 PM 42.1644 -74.4175 112° Southeast 282 325 15,000 -50 Level Boston Center
Sun 06:55:06 PM 42.1222 -74.3128 119° Southeast 288 331 14,900 -450 Descending Boston Center
Sun 06:56:06 PM 42.0842 -74.2247 120° Southeast 293 337 14,100 -950 Descending Boston Center
Sun 06:57:06 PM 42.0125 -74.1417 139° Southeast 301 346 13,000 -1,000 Descending Boston Center
Sun 06:58:06 PM 41.9425 -74.0814 147° Southeast 301 346 12,100 -950 Descending Boston Center
Sun 06:59:06 PM 41.8808 -74.0294 148° Southeast 301 346 11,100 -1,050 Descending Boston Center
Sun 07:00:06 PM 41.8044 -73.9633 147° Southeast 295 339 10,000 -1,000 Descending Boston Center
Sun 07:01:06 PM 41.7447 -73.9092 146° Southeast 295 339 9,100 -950 Descending Boston Center
Sun 07:02:06 PM 41.6683 -73.8464 148° Southeast 295 339 8,100 -909 Descending Boston Center
Sun 07:02:45 PM 41.6167 -73.8000 146° Southeast 287 330 7,600 -667 Descending New York TRACON
Sun 07:03:45 PM 41.5500 -73.7500 151° Southeast 280 322 7,000 -700 Descending New York TRACON
Sun 07:04:45 PM 41.5000 -73.7000 143° Southeast 275 316 6,200 -895 Descending New York TRACON
Sun 07:05:39 PM 41.4333 -73.6500 151° Southeast 270 311 5,300 -947 Descending New York TRACON
Sun 07:06:39 PM 41.3667 -73.6167 159° South 252 290 4,400 -952 Descending New York TRACON
Sun 07:07:45 PM 41.3000 -73.6000 169° South 233 268 3,300 -667 Descending New York TRACON
Sun 07:08:45 PM 41.2333 -73.5833 169° South 206 237 3,000 -158 Descending New York TRACON
Sun 07:09:39 PM 41.2000 -73.5667 159° South 188 216 3,000 -450 Level New York TRACON
Sun 07:10:45 PM 41.1333 -73.5500 169° South 203 234 2,100 -500 Descending New York TRACON
Sun 07:11:39 PM 41.0833 -73.5500 180° South 186 214 2,000 -50 Descending New York TRACON
Sun 07:12:45 PM 41.0333 -73.5500 180° South 157 181 2,000  Level New York TRACON
Sun 07:13:39 PM 41.0167 -73.5667 217° Southwest 142 163 2,000  Level New York TRACON
Sun 07:14:39 PM 41.0000 -73.6167 246° West 137 158 2,000  Level New York TRACON
Sun 07:15:45 PM 41.0167 -73.6667 294° West 154 177 2,000 -400 Level New York TRACON
Sun 07:16:39 PM 41.0333 -73.6833 323° Northwest 97 112 1,200 -889 Descending New York TRACON
Sun 07:18:00 PM 41.0667 -73.7000 252° West  Level FlightAware Approximate
Sun 07:25:00 PM 41.0669 -73.7076 252° West  Level Estimated
Sun 07:26:00 PM 41.0667 -73.7000 252° West  Level FlightAware Approximate

Login

Don't have an account? Register now (free) for customized features, flight alerts, and more!